Time;durP1;ratioP1;P1;durP2;ratioP2;P2;SDS_P1;SDS_P2;PMS_P1;PMS_P2;Temp;Humidity;BMP_temperature;BMP_pressure;BME280_temperature;BME280_humidity;BME280_pressure;Samples;Min_cycle;Max_cycle;Signal;HPM_P1;HPM_P2
2022/04/11 00:02:27;;;;;;;9.55;8.30;;;;;;;5.02;100.00;96759.91;5066174;28;20742;-48
2022/04/11 00:04:55;;;;;;;10.40;8.70;;;;;;;4.98;100.00;96755.81;5068004;28;20075;-46
2022/04/11 00:07:23;;;;;;;10.45;8.05;;;;;;;4.81;100.00;96758.72;5067136;28;20072;-50
2022/04/11 00:09:51;;;;;;;9.38;8.02;;;;;;;4.90;100.00;96751.13;5065584;28;20068;-51
2022/04/11 00:12:20;;;;;;;10.50;8.27;;;;;;;4.85;100.00;96761.06;5064537;28;20612;-51
2022/04/11 00:14:50;;;;;;;11.15;8.15;;;;;;;4.89;100.00;96754.69;5065823;28;20068;-52
2022/04/11 00:17:18;;;;;;;11.85;8.40;;;;;;;4.88;100.00;96746.94;5066695;28;20060;-47
2022/04/11 00:19:46;;;;;;;11.95;8.45;;;;;;;4.89;100.00;96743.41;5066743;28;20080;-48
2022/04/11 00:22:15;;;;;;;11.77;8.02;;;;;;;4.27;100.00;96752.63;5082570;28;20076;-51
2022/04/11 00:24:43;;;;;;;10.88;8.77;;;;;;;4.09;100.00;96758.19;5064561;28;20136;-47
2022/04/11 00:27:11;;;;;;;11.60;8.55;;;;;;;3.88;100.00;96749.94;5065687;28;20736;-48
2022/04/11 00:29:39;;;;;;;11.25;8.88;;;;;;;4.26;100.00;96748.31;5066391;28;20064;-48
2022/04/11 00:32:09;;;;;;;10.75;8.52;;;;;;;4.48;100.00;96744.34;5065867;28;20067;-45
2022/04/11 00:34:37;;;;;;;11.15;9.35;;;;;;;4.51;100.00;96742.38;5062882;28;20077;-48
2022/04/11 00:37:06;;;;;;;10.88;8.65;;;;;;;4.52;100.00;96740.59;5080477;28;20761;-51
2022/04/11 00:39:34;;;;;;;11.63;9.10;;;;;;;4.39;100.00;96747.56;5068756;28;20681;-52
2022/04/11 00:42:08;;;;;;;13.63;9.30;;;;;;;4.48;100.00;96744.34;5063498;28;20072;-54
2022/04/11 00:44:37;;;;;;;11.88;9.23;;;;;;;4.37;100.00;96752.88;5066057;28;20063;-52
2022/04/11 00:47:05;;;;;;;14.48;10.07;;;;;;;4.40;100.00;96751.81;5065964;28;20072;-53
2022/04/11 00:49:35;;;;;;;12.27;9.10;;;;;;;4.03;100.00;96756.81;5065948;28;20080;-47
2022/04/11 00:52:05;;;;;;;11.83;9.50;;;;;;;3.74;100.00;96754.25;5066575;28;20608;-48
2022/04/11 00:54:34;;;;;;;11.98;9.35;;;;;;;3.86;100.00;96752.66;5070119;28;20033;-46
2022/04/11 00:57:03;;;;;;;10.00;8.90;;;;;;;4.10;100.00;96742.44;5065424;28;20174;-50
2022/04/11 00:59:31;;;;;;;10.20;8.60;;;;;;;4.26;100.00;96740.50;5064811;28;20072;-52
2022/04/11 01:02:00;;;;;;;10.10;8.48;;;;;;;4.29;100.00;96744.69;5064346;28;20056;-51
2022/04/11 01:04:28;;;;;;;11.02;8.90;;;;;;;4.25;100.00;96746.66;5065747;28;20080;-50
2022/04/11 01:07:02;;;;;;;11.45;8.70;;;;;;;3.68;100.00;96751.16;5063849;28;20092;-50
2022/04/11 01:09:30;;;;;;;10.73;8.93;;;;;;;3.96;100.00;96745.09;5066257;28;20457;-52
2022/04/11 01:11:59;;;;;;;12.10;8.98;;;;;;;3.90;100.00;96750.69;5064230;28;20700;-48
2022/04/11 01:14:27;;;;;;;12.15;9.02;;;;;;;3.74;100.00;96742.97;5067576;28;20075;-48
2022/04/11 01:16:57;;;;;;;11.55;9.32;;;;;;;3.94;100.00;96739.94;5065255;28;20071;-48
2022/04/11 01:19:26;;;;;;;11.43;9.07;;;;;;;3.85;100.00;96743.13;5065796;28;20080;-50
2022/04/11 01:21:56;;;;;;;11.00;9.25;;;;;;;3.53;100.00;96745.97;5061862;28;20098;-50
2022/04/11 01:24:24;;;;;;;11.15;9.38;;;;;;;3.66;100.00;96745.22;5065725;28;20560;-51
2022/04/11 01:26:52;;;;;;;13.15;9.45;;;;;;;3.80;100.00;96746.03;5063943;28;20074;-47
2022/04/11 01:29:21;;;;;;;13.80;10.20;;;;;;;3.42;100.00;96745.81;5064497;28;20071;-48
2022/04/11 01:31:49;;;;;;;13.88;10.15;;;;;;;3.27;100.00;96749.34;5064323;28;20071;-50
2022/04/11 01:34:18;;;;;;;12.73;9.70;;;;;;;3.41;100.00;96741.53;5065154;28;20041;-50
2022/04/11 01:36:46;;;;;;;13.10;10.13;;;;;;;3.67;100.00;96750.34;5065484;28;20470;-52
2022/04/11 01:39:16;;;;;;;13.40;10.25;;;;;;;3.71;100.00;96741.38;5064597;28;20065;-49
2022/04/11 01:41:44;;;;;;;14.10;10.53;;;;;;;3.45;100.00;96742.19;5062713;28;20043;-45
2022/04/11 01:44:12;;;;;;;12.45;9.82;;;;;;;3.04;100.00;96743.75;5063464;28;20892;-51
2022/04/11 01:46:42;;;;;;;11.85;9.85;;;;;;;3.22;100.00;96748.78;5064091;28;20110;-46
2022/04/11 01:49:11;;;;;;;11.93;9.60;;;;;;;3.09;100.00;96746.06;5063220;28;20091;-48
2022/04/11 01:51:39;;;;;;;14.73;9.90;;;;;;;2.95;100.00;96738.22;5065018;28;20427;-50
2022/04/11 01:54:07;;;;;;;13.90;9.73;;;;;;;3.25;100.00;96743.38;5063509;28;20072;-49
2022/04/11 01:56:37;;;;;;;11.88;10.07;;;;;;;3.49;100.00;96741.88;5065423;28;20072;-49
2022/04/11 01:59:05;;;;;;;11.13;8.60;;;;;;;3.43;100.00;96737.03;5065535;28;20041;-49
2022/04/11 02:01:33;;;;;;;14.70;9.80;;;;;;;3.44;100.00;96736.13;5062224;28;20165;-50
2022/04/11 02:04:02;;;;;;;12.98;9.75;;;;;;;3.56;100.00;96740.56;5064568;28;20572;-49
2022/04/11 02:06:30;;;;;;;14.32;10.10;;;;;;;2.88;100.00;96749.94;5062589;28;20072;-46
2022/04/11 02:08:58;;;;;;;14.80;10.48;;;;;;;3.07;100.00;96743.56;5059784;28;20060;-49
2022/04/11 02:11:26;;;;;;;14.30;10.63;;;;;;;2.82;100.00;96743.31;5061978;28;20068;-51
2022/04/11 02:13:56;;;;;;;13.57;10.25;;;;;;;2.83;100.00;96742.41;5060879;28;20060;-46
2022/04/11 02:16:24;;;;;;;12.77;10.43;;;;;;;2.68;100.00;96738.91;5064229;28;20471;-47
2022/04/11 02:18:53;;;;;;;14.07;11.20;;;;;;;2.83;100.00;96738.03;5064416;28;20094;-50
2022/04/11 02:21:21;;;;;;;14.27;10.55;;;;;;;2.80;100.00;96734.78;5063218;28;20068;-47
2022/04/11 02:23:49;;;;;;;15.10;10.73;;;;;;;2.61;100.00;96727.19;5064960;28;20074;-50
2022/04/11 02:26:17;;;;;;;14.82;12.02;;;;;;;2.91;100.00;96728.94;5052747;28;20068;-47
2022/04/11 02:28:46;;;;;;;17.73;11.82;;;;;;;2.72;100.00;96727.41;5043515;28;20081;-53
2022/04/11 02:31:15;;;;;;;16.17;12.07;;;;;;;2.65;100.00;96726.09;5062958;28;20071;-49
2022/04/11 02:33:44;;;;;;;18.00;12.48;;;;;;;2.77;100.00;96719.31;5063168;28;20087;-50
2022/04/11 02:36:12;;;;;;;16.15;11.70;;;;;;;2.61;100.00;96708.97;5062854;28;20072;-49
2022/04/11 02:38:40;;;;;;;15.50;11.00;;;;;;;2.59;100.00;96721.25;5063904;28;20527;-49
2022/04/11 02:41:08;;;;;;;14.60;11.85;;;;;;;2.36;100.00;96718.19;5064106;28;20064;-47
2022/04/11 02:43:37;;;;;;;17.98;12.10;;;;;;;2.36;100.00;96720.78;5063906;28;20079;-50
2022/04/11 02:46:05;;;;;;;14.70;11.50;;;;;;;2.56;100.00;96713.63;5063285;28;20159;-50
2022/04/11 02:48:34;;;;;;;16.30;11.68;;;;;;;2.85;100.00;96715.31;5063461;28;20064;-52
2022/04/11 02:51:03;;;;;;;16.02;11.38;;;;;;;2.67;100.00;96718.19;5063723;28;20061;-52
2022/04/11 02:53:31;;;;;;;14.82;11.15;;;;;;;2.93;100.00;96712.28;5062234;28;20083;-49
2022/04/11 02:55:59;;;;;;;13.77;10.75;;;;;;;2.56;100.00;96711.00;5064564;28;20635;-52
2022/04/11 02:58:27;;;;;;;15.07;10.68;;;;;;;2.51;100.00;96710.41;5063891;28;20076;-48
2022/04/11 03:00:55;;;;;;;14.13;11.00;;;;;;;2.80;100.00;96708.72;5064810;28;20518;-47
2022/04/11 03:03:24;;;;;;;15.43;11.68;;;;;;;3.11;100.00;96696.47;5063964;28;20055;-52
2022/04/11 03:05:54;;;;;;;14.70;11.50;;;;;;;3.20;100.00;96703.72;5064387;28;20530;-51
2022/04/11 03:08:22;;;;;;;15.33;11.20;;;;;;;3.18;100.00;96703.00;5062071;28;20508;-48
2022/04/11 03:10:50;;;;;;;18.70;11.95;;;;;;;3.29;100.00;96696.19;5064827;28;20455;-50
2022/04/11 03:13:18;;;;;;;15.65;11.63;;;;;;;3.38;100.00;96688.75;5063675;28;20107;-46
2022/04/11 03:15:47;;;;;;;16.40;12.23;;;;;;;3.39;100.00;96691.25;5058947;28;20075;-50
2022/04/11 03:18:15;;;;;;;16.00;11.65;;;;;;;3.09;100.00;96697.38;5063489;28;20479;-53
2022/04/11 03:20:44;;;;;;;16.00;12.18;;;;;;;3.62;100.00;96702.03;5063566;28;20063;-48
2022/04/11 03:23:13;;;;;;;15.77;12.00;;;;;;;3.61;100.00;96700.34;5060857;28;20068;-51
2022/04/11 03:25:41;;;;;;;14.77;11.10;;;;;;;3.69;100.00;96698.09;5064266;28;20635;-48
2022/04/11 03:28:10;;;;;;;15.02;11.32;;;;;;;3.64;100.00;96698.38;5063407;28;20072;-47
2022/04/11 03:30:38;;;;;;;14.85;11.13;;;;;;;3.80;100.00;96693.03;5065887;28;20463;-52
2022/04/11 03:33:06;;;;;;;17.70;11.55;;;;;;;3.76;100.00;96683.75;5064945;28;20476;-53
2022/04/11 03:35:34;;;;;;;14.88;11.40;;;;;;;3.80;100.00;96680.81;5066437;28;20442;-50
2022/04/11 03:38:02;;;;;;;14.75;11.13;;;;;;;3.84;100.00;96683.25;5065958;28;20064;-48
2022/04/11 03:40:32;;;;;;;15.23;11.07;;;;;;;3.82;100.00;96683.34;5069056;28;20080;-46
2022/04/11 03:43:00;;;;;;;16.02;11.10;;;;;;;3.30;100.00;96681.38;5065524;28;20080;-46
2022/04/11 03:45:28;;;;;;;15.38;11.52;;;;;;;3.44;100.00;96678.78;5069576;28;20064;-52
2022/04/11 03:47:57;;;;;;;15.55;11.50;;;;;;;3.09;100.00;96686.13;5062516;28;20075;-51
2022/04/11 03:50:25;;;;;;;17.92;11.38;;;;;;;2.79;100.00;96686.22;5065833;28;20083;-50
2022/04/11 03:52:53;;;;;;;15.45;11.43;;;;;;;2.86;100.00;96679.72;5066115;28;20064;-51
2022/04/11 03:55:22;;;;;;;17.60;12.00;;;;;;;3.31;100.00;96672.66;5066694;28;20083;-48
2022/04/11 03:57:51;;;;;;;19.27;12.05;;;;;;;3.13;100.00;96678.97;5065464;28;20589;-49
2022/04/11 04:00:19;;;;;;;16.57;11.27;;;;;;;3.18;100.00;96677.78;5064370;28;20068;-47
2022/04/11 04:02:48;;;;;;;15.55;11.68;;;;;;;3.41;100.00;96676.34;5061112;28;20434;-54
2022/04/11 04:05:16;;;;;;;17.05;11.73;;;;;;;3.69;100.00;96669.41;5060754;28;20484;-55
2022/04/11 04:07:44;;;;;;;15.73;11.88;;;;;;;3.85;100.00;96672.69;5071019;28;20541;-52
2022/04/11 04:10:13;;;;;;;15.55;11.60;;;;;;;3.61;100.00;96672.47;5070975;28;20083;-49
2022/04/11 04:12:41;;;;;;;19.58;12.65;;;;;;;3.18;100.00;96669.13;5068532;28;20535;-49
2022/04/11 04:15:11;;;;;;;17.13;11.82;;;;;;;2.66;100.00;96675.69;5067394;28;20484;-49
2022/04/11 04:17:39;;;;;;;17.63;11.77;;;;;;;2.74;100.00;96665.66;5070910;28;20083;-50
2022/04/11 04:20:08;;;;;;;16.20;12.25;;;;;;;3.30;100.00;96661.38;5064696;28;20060;-51
2022/04/11 04:22:36;;;;;;;16.65;12.35;;;;;;;3.42;100.00;96656.34;5068744;28;20083;-48
2022/04/11 04:25:05;;;;;;;17.80;12.60;;;;;;;3.25;100.00;96658.22;5075865;28;20083;-47
2022/04/11 04:27:34;;;;;;;17.58;12.93;;;;;;;2.87;100.00;96652.75;5068001;28;20072;-49
2022/04/11 04:30:03;;;;;;;16.73;11.95;;;;;;;3.02;100.00;96649.19;5063037;28;20079;-45
2022/04/11 04:32:32;;;;;;;14.77;12.25;;;;;;;2.87;100.00;96655.34;5064247;28;20128;-46
2022/04/11 04:35:01;;;;;;;16.17;11.93;;;;;;;2.81;100.00;96653.09;5063569;28;20064;-54
2022/04/11 04:37:29;;;;;;;15.75;12.68;;;;;;;3.09;100.00;96641.84;5059623;28;20467;-52
2022/04/11 04:39:57;;;;;;;16.95;12.23;;;;;;;3.07;100.00;96644.56;5066411;28;20095;-48
2022/04/11 04:42:26;;;;;;;21.85;13.77;;;;;;;2.94;100.00;96633.22;5063057;28;20553;-45
2022/04/11 04:44:54;;;;;;;17.98;13.82;;;;;;;3.19;100.00;96634.31;5068105;28;20075;-48
2022/04/11 04:47:25;;;;;;;17.70;13.05;;;;;;;3.13;100.00;96635.50;5067384;28;20060;-49
2022/04/11 04:49:55;;;;;;;17.60;12.57;;;;;;;3.57;100.00;96632.72;5067704;28;20064;-51
2022/04/11 04:52:23;;;;;;;17.63;12.45;;;;;;;3.44;100.00;96636.22;5070121;28;20513;-51
2022/04/11 04:54:51;;;;;;;18.95;12.77;;;;;;;3.79;100.00;96621.78;5067022;28;20075;-48
2022/04/11 04:57:20;;;;;;;17.27;12.05;;;;;;;3.35;100.00;96623.78;5070755;28;20063;-45
2022/04/11 04:59:48;;;;;;;17.15;11.90;;;;;;;3.61;100.00;96625.53;5069446;28;20067;-46
2022/04/11 05:02:16;;;;;;;15.38;12.68;;;;;;;4.05;100.00;96619.25;5071484;28;20059;-53
2022/04/11 05:04:44;;;;;;;15.25;11.82;;;;;;;4.08;100.00;96631.25;5067424;28;20084;-51
2022/04/11 05:07:14;;;;;;;15.00;12.70;;;;;;;4.94;100.00;96628.94;5070106;28;20076;-50
2022/04/11 05:09:42;;;;;;;16.13;13.05;;;;;;;5.35;100.00;96628.66;5067019;28;20108;-50
2022/04/11 05:12:11;;;;;;;13.80;11.40;;;;;;;5.78;100.00;96620.38;5066535;28;20067;-50
2022/04/11 05:14:39;;;;;;;13.30;10.70;;;;;;;5.12;100.00;96632.03;5066336;28;20068;-46
2022/04/11 05:17:08;;;;;;;12.25;10.68;;;;;;;5.41;100.00;96628.22;5071240;28;20117;-47
2022/04/11 05:19:37;;;;;;;13.32;9.60;;;;;;;5.60;100.00;96612.03;5068377;28;20080;-51
2022/04/11 05:22:06;;;;;;;14.05;10.30;;;;;;;5.10;100.00;96624.31;5073646;28;20080;-46
2022/04/11 05:24:36;;;;;;;13.63;10.00;;;;;;;5.20;100.00;96625.34;5073201;28;20060;-49
2022/04/11 05:27:05;;;;;;;13.23;9.48;;;;;;;5.10;100.00;96623.50;5066942;28;20088;-46
2022/04/11 05:29:33;;;;;;;13.52;10.52;;;;;;;4.92;100.00;96622.97;5071542;28;20060;-49
2022/04/11 05:32:01;;;;;;;13.85;10.40;;;;;;;5.10;100.00;96620.88;5071959;28;20056;-51
2022/04/11 05:34:30;;;;;;;14.30;11.23;;;;;;;5.28;100.00;96616.97;5071460;28;20537;-51
2022/04/11 05:36:58;;;;;;;16.15;11.77;;;;;;;5.40;100.00;96616.09;5069458;28;20068;-50
2022/04/11 05:39:26;;;;;;;15.70;11.90;;;;;;;4.62;100.00;96616.31;5071562;28;20466;-52
2022/04/11 05:41:56;;;;;;;20.95;14.07;;;;;;;5.24;100.00;96616.34;5069831;28;20060;-52
2022/04/11 05:44:24;;;;;;;18.13;13.27;;;;;;;5.02;100.00;96608.31;5062430;28;20064;-53
2022/04/11 05:46:53;;;;;;;14.75;12.38;;;;;;;4.73;100.00;96613.78;5060675;28;20068;-51
2022/04/11 05:49:22;;;;;;;14.88;11.00;;;;;;;4.94;100.00;96616.69;5067088;28;20084;-49
2022/04/11 05:51:51;;;;;;;13.65;10.73;;;;;;;5.11;100.00;96620.75;5039455;28;20061;-49
2022/04/11 05:54:19;;;;;;;14.88;10.55;;;;;;;5.48;100.00;96610.31;5060180;28;20064;-52
2022/04/11 05:56:47;;;;;;;13.65;10.75;;;;;;;5.04;100.00;96626.53;5066123;28;20080;-46
2022/04/11 05:59:17;;;;;;;12.02;10.07;;;;;;;5.06;100.00;96622.00;5064019;28;20430;-46
2022/04/11 06:01:45;;;;;;;15.27;11.38;;;;;;;5.26;100.00;96620.63;5061770;28;20076;-46
2022/04/11 06:04:14;;;;;;;12.35;9.73;;;;;;;5.10;100.00;96620.88;5059389;28;20084;-49
2022/04/11 06:06:42;;;;;;;11.57;9.27;;;;;;;5.53;100.00;96616.03;5065635;28;20583;-48
2022/04/11 06:09:10;;;;;;;9.85;8.40;;;;;;;5.57;100.00;96625.34;5059281;28;20080;-53
2022/04/11 06:11:38;;;;;;;9.63;7.40;;;;;;;5.38;100.00;96617.16;5064155;28;20069;-46
2022/04/11 06:14:07;;;;;;;9.48;7.45;;;;;;;5.35;100.00;96625.22;5062628;28;20075;-50
2022/04/11 06:16:36;;;;;;;7.88;7.07;;;;;;;5.63;100.00;96616.22;5064846;28;20091;-52
2022/04/11 06:19:05;;;;;;;9.27;7.15;;;;;;;5.67;100.00;96605.44;5068384;28;20087;-51
2022/04/11 06:21:33;;;;;;;8.63;7.40;;;;;;;6.08;100.00;96616.47;5068607;28;20060;-49
2022/04/11 06:24:01;;;;;;;7.55;6.75;;;;;;;5.13;100.00;96621.50;5068524;28;20060;-49
2022/04/11 06:26:29;;;;;;;8.30;6.82;;;;;;;5.78;100.00;96617.75;5068740;28;20075;-50
2022/04/11 06:28:58;;;;;;;7.28;6.57;;;;;;;5.46;100.00;96618.25;5068653;28;20079;-48
2022/04/11 06:31:26;;;;;;;7.57;6.78;;;;;;;5.51;100.00;96623.19;5068643;28;20075;-50
2022/04/11 06:33:56;;;;;;;9.57;7.00;;;;;;;5.61;100.00;96626.81;5069456;28;20415;-54
2022/04/11 06:36:24;;;;;;;11.68;6.63;;;;;;;6.02;100.00;96615.16;5068089;28;20064;-46
2022/04/11 06:38:52;;;;;;;7.28;6.38;;;;;;;6.52;100.00;96625.44;5065696;28;20483;-48
2022/04/11 06:41:26;;;;;;;6.78;6.05;;;;;;;6.23;100.00;96627.59;5068087;28;20067;-50
2022/04/11 06:43:54;;;;;;;7.40;6.60;;;;;;;6.17;100.00;96623.66;5068866;28;20032;-49
2022/04/11 06:46:23;;;;;;;8.98;6.32;;;;;;;6.32;100.00;96621.69;5069069;28;20080;-50
2022/04/11 06:48:51;;;;;;;7.82;6.72;;;;;;;6.30;100.00;96621.81;5068259;28;20072;-52
2022/04/11 06:51:21;;;;;;;8.30;6.40;;;;;;;7.53;100.00;96610.56;5064832;28;20072;-47
2022/04/11 06:53:50;;;;;;;8.30;6.22;;;;;;;7.58;100.00;96618.91;5068537;28;20072;-51
2022/04/11 06:56:18;;;;;;;8.02;6.72;;;;;;;7.57;100.00;96613.75;5068430;28;20079;-45
2022/04/11 06:58:46;;;;;;;7.00;6.30;;;;;;;7.08;100.00;96620.25;5067896;28;20068;-46
2022/04/11 07:01:14;;;;;;;8.48;6.22;;;;;;;6.97;100.00;96626.34;5069016;28;20091;-47
2022/04/11 07:03:50;;;;;;;7.38;6.57;;;;;;;7.81;100.00;96619.72;5070407;28;20068;-52
2022/04/11 07:06:18;;;;;;;8.55;6.70;;;;;;;7.99;100.00;96621.78;5068029;28;20060;-53
2022/04/11 07:08:48;;;;;;;7.47;5.78;;;;;;;7.58;100.00;96623.31;5065458;28;20075;-49
2022/04/11 07:11:16;;;;;;;6.50;5.90;;;;;;;7.98;100.00;96623.59;5068214;28;20049;-50
2022/04/11 07:13:45;;;;;;;7.72;6.10;;;;;;;7.08;100.00;96622.88;5065037;28;20084;-51
2022/04/11 07:16:13;;;;;;;6.65;5.80;;;;;;;7.45;100.00;96628.72;5062662;28;20079;-50
2022/04/11 07:18:41;;;;;;;6.78;6.07;;;;;;;7.41;100.00;96629.91;5068003;28;20069;-50
2022/04/11 07:21:09;;;;;;;8.65;6.30;;;;;;;7.43;100.00;96620.09;5068122;28;20094;-49
2022/04/11 07:23:38;;;;;;;12.18;6.05;;;;;;;7.25;100.00;96624.19;5068300;28;20091;-48
2022/04/11 07:26:07;;;;;;;7.13;6.00;;;;;;;6.99;100.00;96626.22;5068241;28;20067;-53
2022/04/11 07:28:35;;;;;;;7.40;6.45;;;;;;;7.49;100.00;96624.88;5073921;28;20553;-51
2022/04/11 07:31:04;;;;;;;7.50;6.70;;;;;;;7.34;100.00;96628.72;5068068;28;20080;-50
2022/04/11 07:33:35;;;;;;;6.80;6.05;;;;;;;7.77;100.00;96622.69;5068644;28;20086;-50
2022/04/11 07:36:03;;;;;;;7.65;6.38;;;;;;;7.61;100.00;96620.47;5068186;28;20064;-48
2022/04/11 07:38:31;;;;;;;6.78;5.63;;;;;;;7.90;100.00;96618.13;5067674;28;20540;-50
2022/04/11 07:41:00;;;;;;;7.63;6.50;;;;;;;8.16;100.00;96616.00;5067810;28;20067;-50
2022/04/11 07:43:30;;;;;;;8.95;6.60;;;;;;;8.21;100.00;96610.34;5068334;28;20084;-52
2022/04/11 07:46:01;;;;;;;7.07;6.38;;;;;;;8.29;100.00;96611.41;5071422;28;21533;-48
2022/04/11 07:48:30;;;;;;;9.52;6.80;;;;;;;8.52;100.00;96614.75;5068653;28;20084;-47
2022/04/11 07:50:58;;;;;;;8.00;7.10;;;;;;;8.52;100.00;96614.75;5067676;28;20083;-51
2022/04/11 07:53:26;;;;;;;7.65;6.45;;;;;;;8.12;100.00;96605.84;5067997;28;20060;-44
2022/04/11 07:55:54;;;;;;;7.45;6.68;;;;;;;8.73;100.00;96614.75;5067497;28;20467;-52
2022/04/11 07:58:23;;;;;;;9.38;6.82;;;;;;;8.58;100.00;96608.19;5067796;28;20087;-51
2022/04/11 08:00:53;;;;;;;8.23;7.03;;;;;;;8.77;100.00;96621.44;5067608;28;20456;-52
2022/04/11 08:03:21;;;;;;;7.63;6.63;;;;;;;9.03;100.00;96623.66;5069197;28;20110;-46
2022/04/11 08:05:49;;;;;;;7.97;6.20;;;;;;;8.95;100.00;96623.50;5067383;28;20072;-51
2022/04/11 08:08:18;;;;;;;8.43;6.72;;;;;;;8.78;100.00;96630.16;5067621;28;20072;-48
2022/04/11 08:10:46;;;;;;;9.60;5.97;;;;;;;9.61;100.00;96618.63;5068345;28;20091;-51
2022/04/11 08:13:14;;;;;;;8.75;6.57;;;;;;;8.94;100.00;96621.78;5071970;28;20094;-52
2022/04/11 08:15:43;;;;;;;7.43;5.60;;;;;;;9.09;100.00;96620.50;5064189;28;20534;-48
2022/04/11 08:18:12;;;;;;;7.10;5.78;;;;;;;9.30;100.00;96624.88;5064699;28;20087;-46
2022/04/11 08:20:40;;;;;;;7.35;5.63;;;;;;;9.56;100.00;96619.97;5061379;28;20456;-49
2022/04/11 08:23:09;;;;;;;7.10;6.13;;;;;;;9.44;100.00;96612.19;5065807;28;20518;-53
2022/04/11 08:25:37;;;;;;;8.73;5.63;;;;;;;9.16;100.00;96620.81;5069884;28;20122;-49
2022/04/11 08:28:05;;;;;;;8.77;5.35;;;;;;;9.79;100.00;96610.06;5071569;28;20553;-52
2022/04/11 08:30:34;;;;;;;7.88;5.38;;;;;;;9.74;100.00;96603.41;5063918;28;20104;-48
2022/04/11 08:33:02;;;;;;;7.22;5.07;;;;;;;10.03;96.74;96601.78;5070810;28;20462;-51
2022/04/11 08:35:31;;;;;;;7.93;5.78;;;;;;;9.71;93.31;96614.19;5071779;28;20072;-51
2022/04/11 08:38:00;;;;;;;6.40;5.35;;;;;;;10.06;100.00;96604.13;5068094;28;20063;-49
2022/04/11 08:40:30;;;;;;;6.80;5.70;;;;;;;9.84;99.85;96597.28;5066649;28;20167;-49
2022/04/11 08:43:00;;;;;;;6.97;4.93;;;;;;;10.40;95.32;96596.66;5049347;28;21504;-48
2022/04/11 08:45:30;;;;;;;5.32;4.82;;;;;;;9.76;93.54;96600.63;5062161;28;20075;-46
2022/04/11 08:47:58;;;;;;;6.57;5.40;;;;;;;10.47;100.00;96599.59;5066115;28;20068;-50
2022/04/11 08:50:27;;;;;;;6.95;5.35;;;;;;;10.72;94.23;96593.69;5067368;28;20072;-46
2022/04/11 08:52:57;;;;;;;9.77;5.00;;;;;;;10.81;96.44;96584.13;5071065;28;20063;-52
2022/04/11 08:55:25;;;;;;;4.93;4.43;;;;;;;10.33;94.22;96575.31;5071494;28;20075;-51
2022/04/11 08:57:59;;;;;;;6.43;4.90;;;;;;;10.68;100.00;96579.13;5070729;28;20495;-48
2022/04/11 09:00:30;;;;;;;6.50;5.45;;;;;;;10.08;100.00;96578.47;5067139;28;20532;-52
2022/04/11 09:02:59;;;;;;;6.32;4.78;;;;;;;11.17;99.75;96578.00;5065470;28;20075;-47
2022/04/11 09:05:29;;;;;;;6.18;5.07;;;;;;;10.80;97.49;96569.25;5066793;28;20083;-51
2022/04/11 09:07:59;;;;;;;5.80;4.97;;;;;;;11.03;100.00;96565.28;5071032;28;20068;-55
2022/04/11 09:10:29;;;;;;;5.35;4.80;;;;;;;11.02;100.00;96557.53;5070478;28;20083;-50
2022/04/11 09:12:59;;;;;;;7.20;5.70;;;;;;;10.78;97.64;96565.94;5070099;28;21543;-49
2022/04/11 09:15:28;;;;;;;8.13;5.43;;;;;;;10.98;100.00;96564.91;5070359;28;20682;-52
2022/04/11 09:18:15;;;;;;;6.47;4.70;;;;;;;11.07;100.00;96560.53;5070080;28;20056;-51
2022/04/11 09:20:44;;;;;;;6.28;4.85;;;;;;;11.10;100.00;96574.28;5067483;28;20069;-50
2022/04/11 09:23:20;;;;;;;6.03;4.72;;;;;;;11.19;100.00;96575.22;5069808;28;20075;-48
2022/04/11 09:25:48;;;;;;;5.50;4.90;;;;;;;11.32;100.00;96566.94;5067100;28;20084;-49
2022/04/11 09:28:16;;;;;;;6.82;4.93;;;;;;;10.88;100.00;96561.47;5070318;28;20075;-49
2022/04/11 09:30:45;;;;;;;5.82;4.28;;;;;;;11.11;100.00;96569.81;5069347;28;20075;-49
2022/04/11 09:33:13;;;;;;;7.00;5.30;;;;;;;10.82;100.00;96576.03;5071298;28;20071;-47
2022/04/11 09:35:46;;;;;;;6.18;4.97;;;;;;;11.56;100.00;96572.53;5065708;28;20060;-45
2022/04/11 09:38:16;;;;;;;6.38;5.28;;;;;;;12.10;100.00;96562.03;5069130;28;20068;-50
2022/04/11 09:40:48;;;;;;;6.37;5.10;;;;;;;11.45;100.00;96556.06;5069506;28;20071;-46
2022/04/11 09:43:17;;;;;;;7.00;5.15;;;;;;;11.82;96.61;96561.25;5070028;28;20076;-49
2022/04/11 09:45:47;;;;;;;7.22;5.43;;;;;;;11.39;96.00;96565.41;5065612;28;20060;-45
2022/04/11 09:48:21;;;;;;;6.50;4.90;;;;;;;11.37;100.00;96562.91;5067852;28;20447;-51
2022/04/11 09:50:50;;;;;;;5.50;4.93;;;;;;;11.94;100.00;96565.38;5077119;28;20471;-50
2022/04/11 09:53:20;;;;;;;5.85;5.25;;;;;;;11.59;100.00;96563.47;5069797;28;20060;-48
2022/04/11 09:55:52;;;;;;;5.72;4.88;;;;;;;11.65;100.00;96561.06;5064125;28;20441;-45
2022/04/11 09:58:21;;;;;;;6.53;4.93;;;;;;;11.73;100.00;96562.13;5060820;28;20076;-48
2022/04/11 10:00:50;;;;;;;6.13;5.40;;;;;;;12.04;93.76;96557.34;5062267;28;20446;-52
2022/04/11 10:03:22;;;;;;;7.00;5.15;;;;;;;11.83;92.42;96552.34;5067997;28;20068;-50
2022/04/11 10:05:51;;;;;;;7.20;5.13;;;;;;;11.83;91.89;96552.34;5069088;28;20060;-46
2022/04/11 10:08:22;;;;;;;6.00;4.90;;;;;;;12.08;95.89;96551.63;5069357;28;20375;-47
2022/04/11 10:10:52;;;;;;;6.35;4.93;;;;;;;11.84;93.11;96544.31;5067643;28;20072;-50
2022/04/11 10:13:21;;;;;;;7.25;4.95;;;;;;;12.15;100.00;96543.94;5069760;28;20080;-46
2022/04/11 10:15:50;;;;;;;6.53;4.40;;;;;;;12.19;86.75;96544.44;5068929;28;20068;-54
2022/04/11 10:18:21;;;;;;;5.70;4.78;;;;;;;12.06;92.71;96544.84;5065218;28;20060;-51
2022/04/11 10:20:51;;;;;;;5.40;4.88;;;;;;;12.11;90.03;96537.25;5066964;28;20513;-54
2022/04/11 10:23:44;;;;;;;5.70;4.60;;;;;;;11.94;100.00;96533.66;5068100;28;20068;-52
2022/04/11 10:26:17;;;;;;;5.60;4.78;;;;;;;12.39;83.55;96524.78;5069021;28;20517;-46
2022/04/11 10:28:46;;;;;;;5.10;4.60;;;;;;;12.04;82.66;96523.84;5065191;28;20080;-50
2022/04/11 10:31:16;;;;;;;6.97;5.43;;;;;;;12.09;83.67;96529.50;5067356;28;20056;-48
2022/04/11 10:33:47;;;;;;;6.20;5.05;;;;;;;12.68;90.35;96531.56;5069726;28;20079;-48
2022/04/11 10:36:29;;;;;;;5.90;4.90;;;;;;;12.64;84.33;96514.38;5064328;28;20121;-50
2022/04/11 10:39:23;;;;;;;5.22;4.07;;;;;;;12.41;76.57;96527.25;5064983;28;20060;-49
2022/04/11 10:42:10;;;;;;;7.80;5.03;;;;;;;12.50;83.50;96513.13;5062359;28;20074;-48
2022/04/11 10:44:40;;;;;;;5.15;4.50;;;;;;;12.70;65.98;96533.09;5064576;28;20072;-53
2022/04/11 10:47:35;;;;;;;6.43;4.40;;;;;;;12.48;68.53;96530.94;5066419;28;20517;-47
2022/04/11 10:50:21;;;;;;;6.30;5.10;;;;;;;13.72;69.07;96521.59;5068658;28;20920;-53
2022/04/11 10:53:25;;;;;;;6.93;4.70;;;;;;;13.36;71.75;96520.19;5066156;28;20148;-50
2022/04/11 10:56:02;;;;;;;6.57;5.25;;;;;;;12.92;70.87;96526.44;5062401;28;20064;-49
2022/04/11 10:58:47;;;;;;;5.85;5.25;;;;;;;12.91;70.41;96514.19;5068465;28;20080;-52
2022/04/11 11:01:16;;;;;;;4.93;4.20;;;;;;;12.92;67.31;96520.31;5068764;28;20075;-50
2022/04/11 11:04:00;;;;;;;5.75;4.95;;;;;;;12.47;67.49;96503.66;5070350;28;20064;-52
2022/04/11 11:06:28;;;;;;;5.65;4.15;;;;;;;12.66;64.48;96510.56;5068370;28;20068;-49
2022/04/11 11:08:56;;;;;;;5.82;4.60;;;;;;;12.85;61.86;96506.88;5061859;28;20072;-50
2022/04/11 11:11:26;;;;;;;6.43;5.20;;;;;;;13.17;67.19;96495.59;5060256;28;20526;-52
2022/04/11 11:13:57;;;;;;;7.32;4.78;;;;;;;13.12;64.98;96491.78;5062365;28;20063;-53
2022/04/11 11:16:58;;;;;;;6.70;4.57;;;;;;;13.38;62.38;96489.88;5068908;28;20466;-53
2022/04/11 11:19:27;;;;;;;5.13;4.63;;;;;;;13.36;58.70;96473.34;5067132;28;20414;-50
2022/04/11 11:22:03;;;;;;;3.92;3.63;;;;;;;13.07;64.98;96474.56;5067947;28;20079;-52
2022/04/11 11:24:31;;;;;;;6.65;4.50;;;;;;;13.49;62.88;96472.91;5068826;28;20079;-54
2022/04/11 11:27:03;;;;;;;6.15;4.63;;;;;;;13.52;58.02;96469.88;5066651;28;20063;-48
2022/04/11 11:29:34;;;;;;;4.95;4.28;;;;;;;13.55;57.11;96464.28;5066820;28;20072;-52
2022/04/11 11:32:04;;;;;;;4.75;4.30;;;;;;;13.03;60.27;96461.78;5067896;28;20060;-50
2022/04/11 11:34:34;;;;;;;7.32;4.82;;;;;;;13.49;67.41;96463.13;5071023;28;20088;-51
2022/04/11 11:37:04;;;;;;;6.80;4.95;;;;;;;13.43;60.88;96453.16;5068201;28;20534;-51
2022/04/11 11:39:35;;;;;;;6.07;4.65;;;;;;;13.20;63.74;96458.19;5067706;28;20087;-51